createdAt,value
2022-12-31T00:01:18.349Z,75.79
2022-12-31T00:03:46.901Z,75.51
2022-12-31T00:06:14.909Z,75.47
2022-12-31T00:08:43.864Z,75.37
2022-12-31T00:11:12.669Z,75.33
2022-12-31T00:13:41.343Z,75.46
2022-12-31T00:16:14.831Z,75.81
2022-12-31T00:18:48.513Z,76.35
2022-12-31T00:21:17.518Z,76.32
2022-12-31T00:23:45.836Z,76.47
2022-12-31T00:26:16.428Z,76.25
2022-12-31T00:28:44.980Z,75.97
2022-12-31T00:31:13.146Z,75.77
2022-12-31T00:33:41.652Z,75.56
2022-12-31T00:36:11.670Z,75.53
2022-12-31T00:38:40.753Z,75.55
2022-12-31T00:41:09.186Z,75.63
2022-12-31T00:43:37.430Z,76.24
2022-12-31T00:46:06.882Z,76.88
2022-12-31T00:48:35.997Z,77.18
2022-12-31T00:51:12.490Z,77.39
2022-12-31T00:53:40.924Z,77.00
2022-12-31T00:56:12.449Z,76.72
2022-12-31T00:58:41.139Z,76.36
2022-12-31T01:01:21.135Z,76.42
2022-12-31T01:03:51.165Z,75.92
2022-12-31T01:06:20.000Z,75.80
2022-12-31T01:08:49.059Z,75.76
2022-12-31T01:11:22.863Z,75.57
2022-12-31T01:14:14.448Z,75.69
2022-12-31T01:16:45.662Z,75.83
2022-12-31T01:19:36.379Z,76.20
2022-12-31T01:22:04.377Z,76.23
2022-12-31T01:24:32.563Z,76.20
2022-12-31T01:27:00.648Z,76.25
2022-12-31T01:29:29.809Z,76.03
2022-12-31T01:31:57.920Z,75.94
2022-12-31T01:34:26.055Z,75.86
2022-12-31T01:36:54.128Z,75.72
2022-12-31T01:39:22.226Z,75.73
2022-12-31T01:41:50.286Z,75.80
2022-12-31T01:44:27.414Z,75.62
2022-12-31T01:46:58.527Z,75.57
2022-12-31T01:49:32.491Z,75.37
2022-12-31T01:52:12.817Z,75.98
2022-12-31T01:54:48.026Z,76.42
2022-12-31T01:57:17.153Z,76.68
2022-12-31T01:59:45.553Z,76.97
2022-12-31T02:02:14.661Z,76.91
2022-12-31T02:04:42.930Z,76.69
2022-12-31T02:07:12.527Z,76.70
2022-12-31T02:09:42.098Z,76.72
2022-12-31T02:12:10.720Z,76.32
2022-12-31T02:14:44.294Z,75.92
2022-12-31T02:17:15.267Z,75.59
2022-12-31T02:20:14.320Z,75.66
2022-12-31T02:23:10.745Z,75.60
2022-12-31T02:26:07.125Z,76.33
2022-12-31T02:29:19.849Z,76.20
2022-12-31T02:31:55.276Z,75.83
2022-12-31T02:34:37.714Z,75.95
2022-12-31T02:37:10.497Z,75.97
2022-12-31T02:39:39.994Z,75.93
2022-12-31T02:42:10.465Z,75.89
2022-12-31T02:44:40.601Z,75.95
2022-12-31T02:47:08.582Z,75.86
2022-12-31T02:49:58.745Z,75.61
2022-12-31T02:52:33.029Z,75.31
2022-12-31T02:55:31.975Z,75.20
2022-12-31T02:58:44.584Z,75.17
2022-12-31T03:01:37.589Z,75.15
2022-12-31T03:04:24.450Z,75.34
2022-12-31T03:06:53.287Z,75.58
2022-12-31T03:09:21.517Z,75.94
2022-12-31T03:12:07.954Z,76.08
2022-12-31T03:14:36.011Z,75.90
2022-12-31T03:17:04.047Z,75.95
2022-12-31T03:19:50.864Z,75.94
2022-12-31T03:22:28.043Z,75.65
2022-12-31T03:25:21.293Z,75.65
2022-12-31T03:27:50.894Z,75.68
2022-12-31T03:30:20.405Z,75.57
2022-12-31T03:32:49.812Z,75.54
2022-12-31T03:35:20.531Z,75.24
2022-12-31T03:37:50.009Z,75.10
2022-12-31T03:40:20.982Z,74.84
2022-12-31T03:42:49.163Z,74.52
2022-12-31T03:45:17.464Z,74.58
2022-12-31T03:47:46.229Z,74.73
2022-12-31T03:50:16.725Z,74.82
2022-12-31T03:52:45.416Z,74.81
2022-12-31T03:55:13.696Z,75.23
2022-12-31T03:57:42.089Z,75.35
2022-12-31T04:00:13.452Z,75.51
2022-12-31T04:02:42.143Z,75.54
2022-12-31T04:05:10.923Z,75.47
2022-12-31T04:07:39.520Z,75.48
2022-12-31T04:10:08.446Z,75.27
2022-12-31T04:12:36.969Z,75.41
2022-12-31T04:15:05.387Z,75.31
2022-12-31T04:17:33.535Z,75.32
2022-12-31T04:20:01.941Z,75.23
2022-12-31T04:22:30.693Z,75.26
2022-12-31T04:24:58.708Z,75.46
2022-12-31T04:27:26.688Z,75.60
2022-12-31T04:29:54.764Z,75.48
2022-12-31T04:32:22.775Z,75.57
2022-12-31T04:34:50.847Z,75.71
2022-12-31T04:37:18.921Z,75.64
2022-12-31T04:39:46.993Z,75.68
2022-12-31T04:42:15.070Z,75.50
2022-12-31T04:44:43.062Z,75.55
2022-12-31T04:47:10.988Z,75.51
2022-12-31T04:49:39.130Z,75.69
2022-12-31T04:52:07.267Z,75.59
2022-12-31T04:54:35.246Z,75.34
2022-12-31T04:57:03.493Z,75.24
2022-12-31T04:59:31.527Z,75.32
2022-12-31T05:01:59.621Z,75.92
2022-12-31T05:04:28.163Z,76.03
2022-12-31T05:06:56.196Z,76.10
2022-12-31T05:09:27.618Z,76.38
2022-12-31T05:11:55.729Z,76.47
2022-12-31T05:14:23.729Z,76.09
2022-12-31T05:16:52.248Z,75.77
2022-12-31T05:19:20.336Z,75.63
2022-12-31T05:22:08.630Z,75.65
2022-12-31T05:24:36.735Z,75.68
2022-12-31T05:27:05.436Z,75.58
2022-12-31T05:29:33.385Z,75.68
2022-12-31T05:32:01.714Z,75.63
2022-12-31T05:34:29.726Z,75.56
2022-12-31T05:36:57.808Z,75.52
2022-12-31T05:39:25.821Z,75.79
2022-12-31T05:41:53.877Z,75.99
2022-12-31T05:44:21.882Z,76.01
2022-12-31T05:46:49.990Z,76.18
2022-12-31T05:49:17.978Z,76.13
2022-12-31T05:51:46.118Z,76.02
2022-12-31T05:54:14.190Z,75.72
2022-12-31T05:56:42.250Z,75.55
2022-12-31T05:59:10.467Z,75.68
2022-12-31T06:01:38.742Z,75.64
2022-12-31T06:04:06.816Z,75.57
2022-12-31T06:06:34.816Z,75.38
2022-12-31T06:09:03.520Z,75.44
2022-12-31T06:11:31.613Z,75.44
2022-12-31T06:13:59.650Z,75.65
2022-12-31T06:16:28.161Z,75.66
2022-12-31T06:18:56.399Z,75.64
2022-12-31T06:21:24.503Z,75.64
2022-12-31T06:23:52.540Z,75.60
2022-12-31T06:26:20.578Z,75.59
2022-12-31T06:28:48.758Z,75.56
2022-12-31T06:31:17.307Z,75.65
2022-12-31T06:33:47.007Z,75.73
2022-12-31T06:36:16.101Z,75.58
2022-12-31T06:38:45.195Z,75.81
2022-12-31T06:41:15.739Z,75.86
2022-12-31T06:43:45.375Z,75.87
2022-12-31T06:46:16.371Z,75.80
2022-12-31T06:48:45.224Z,75.80
2022-12-31T06:51:17.860Z,75.71
2022-12-31T06:53:47.486Z,75.62
2022-12-31T06:56:17.372Z,75.59
2022-12-31T06:58:46.338Z,75.42
2022-12-31T07:01:51.558Z,75.54
2022-12-31T07:04:50.618Z,75.66
2022-12-31T07:07:22.050Z,75.44
2022-12-31T07:10:09.020Z,75.67
2022-12-31T07:13:02.205Z,75.55
2022-12-31T07:16:08.152Z,75.67
2022-12-31T07:18:39.015Z,75.82
2022-12-31T07:21:16.133Z,76.24
2022-12-31T07:23:44.911Z,76.05
2022-12-31T07:26:15.730Z,75.80
2022-12-31T07:28:54.690Z,75.62
2022-12-31T07:31:52.820Z,75.37
2022-12-31T07:34:58.556Z,75.83
2022-12-31T07:37:30.643Z,75.99
2022-12-31T07:40:01.521Z,75.83
2022-12-31T07:42:39.195Z,76.07
2022-12-31T07:45:21.268Z,75.87
2022-12-31T07:47:49.682Z,75.80
2022-12-31T07:50:19.173Z,75.79
2022-12-31T07:52:47.532Z,75.78
2022-12-31T07:55:15.768Z,75.52
2022-12-31T07:58:01.867Z,75.61
2022-12-31T08:00:31.325Z,75.66
2022-12-31T08:03:05.756Z,75.51
2022-12-31T08:06:00.632Z,75.52
2022-12-31T08:08:37.776Z,75.62
2022-12-31T08:11:21.185Z,75.90
2022-12-31T08:13:50.491Z,75.81
2022-12-31T08:16:18.939Z,75.92
2022-12-31T08:18:47.467Z,76.12
2022-12-31T08:21:19.529Z,76.16
2022-12-31T08:24:12.662Z,76.52
2022-12-31T08:26:51.060Z,76.43
2022-12-31T08:29:39.584Z,76.36
2022-12-31T08:32:13.768Z,76.36
2022-12-31T08:34:50.267Z,76.47
2022-12-31T08:37:28.350Z,76.22
2022-12-31T08:40:05.727Z,76.46
2022-12-31T08:42:58.493Z,76.61
2022-12-31T08:45:40.980Z,76.49
2022-12-31T08:48:41.301Z,76.61
2022-12-31T08:51:15.913Z,76.51
2022-12-31T08:53:44.253Z,76.48
2022-12-31T08:56:21.420Z,76.24
2022-12-31T08:59:14.499Z,76.20
2022-12-31T09:02:08.839Z,76.19
2022-12-31T09:04:45.887Z,75.97
2022-12-31T09:07:14.716Z,75.75
2022-12-31T09:09:57.087Z,75.80
2022-12-31T09:13:04.107Z,75.73
2022-12-31T09:16:17.293Z,75.78
2022-12-31T09:18:45.740Z,75.61
2022-12-31T09:21:14.508Z,75.41
2022-12-31T09:23:43.119Z,75.77
2022-12-31T09:26:28.786Z,75.79
2022-12-31T09:29:29.394Z,76.09
2022-12-31T09:32:23.415Z,75.64
2022-12-31T09:35:33.548Z,75.51
2022-12-31T09:38:31.682Z,75.41
2022-12-31T09:41:16.427Z,75.36
2022-12-31T09:44:03.269Z,75.46
2022-12-31T09:46:47.227Z,75.55
2022-12-31T09:49:34.239Z,75.46
2022-12-31T09:52:24.191Z,75.26
2022-12-31T09:55:00.488Z,74.93
2022-12-31T09:57:34.926Z,74.73
2022-12-31T10:00:15.033Z,74.63
2022-12-31T10:03:21.005Z,74.42
2022-12-31T10:06:11.118Z,74.59
2022-12-31T10:08:42.532Z,74.70
2022-12-31T10:11:23.121Z,74.67
2022-12-31T10:14:30.169Z,74.47
2022-12-31T10:17:18.369Z,74.33
2022-12-31T10:20:11.837Z,74.44
2022-12-31T10:22:45.617Z,74.63
2022-12-31T10:25:39.720Z,74.66
2022-12-31T10:28:20.378Z,74.55
2022-12-31T10:31:01.171Z,74.54
2022-12-31T10:33:38.843Z,74.48
2022-12-31T10:36:15.899Z,74.25
2022-12-31T10:39:13.453Z,74.12
2022-12-31T10:41:59.531Z,73.74
2022-12-31T10:44:42.574Z,73.74
2022-12-31T10:47:36.705Z,73.67
2022-12-31T10:50:32.634Z,74.02
2022-12-31T10:53:18.361Z,74.28
2022-12-31T10:55:58.594Z,74.40
2022-12-31T10:58:45.357Z,74.36
2022-12-31T11:01:16.549Z,74.17
2022-12-31T11:04:18.251Z,73.97
2022-12-31T11:06:55.011Z,73.65
2022-12-31T11:09:41.834Z,73.64
2022-12-31T11:12:28.270Z,73.53
2022-12-31T11:15:11.744Z,73.56
2022-12-31T11:17:49.076Z,73.58
2022-12-31T11:21:11.512Z,73.84
2022-12-31T11:24:03.687Z,74.74
2022-12-31T11:26:56.527Z,74.28
2022-12-31T11:29:33.957Z,74.11
2022-12-31T11:32:09.442Z,74.00
2022-12-31T11:34:46.775Z,73.84
2022-12-31T11:37:53.508Z,73.83
2022-12-31T11:40:44.580Z,73.84
2022-12-31T11:43:22.845Z,73.93
2022-12-31T11:46:21.760Z,73.81
2022-12-31T11:48:52.843Z,73.77
2022-12-31T11:51:50.187Z,73.78
2022-12-31T11:54:37.783Z,73.35
2022-12-31T11:57:26.449Z,73.08
2022-12-31T11:59:59.468Z,72.79
2022-12-31T12:02:38.357Z,72.91
2022-12-31T12:05:11.010Z,72.45
2022-12-31T12:07:39.955Z,72.35
2022-12-31T12:10:51.339Z,72.09
2022-12-31T12:13:27.253Z,72.37
2022-12-31T12:16:02.702Z,72.87
2022-12-31T12:18:36.265Z,73.61
2022-12-31T12:21:11.558Z,73.37
2022-12-31T12:23:40.193Z,73.20
2022-12-31T12:26:28.745Z,73.39
2022-12-31T12:29:00.706Z,73.39
2022-12-31T12:31:28.775Z,73.26
2022-12-31T12:33:56.886Z,73.18
2022-12-31T12:36:25.008Z,73.16
2022-12-31T12:39:06.888Z,73.00
2022-12-31T12:41:34.932Z,73.03
2022-12-31T12:44:13.725Z,73.17
2022-12-31T12:46:48.751Z,73.13
2022-12-31T12:49:24.997Z,73.17
2022-12-31T12:52:31.367Z,73.21
2022-12-31T12:55:09.214Z,73.08
2022-12-31T12:57:55.265Z,72.80
2022-12-31T13:00:29.795Z,73.00
2022-12-31T13:03:34.616Z,72.96
2022-12-31T13:06:08.866Z,73.07
2022-12-31T13:08:56.703Z,73.04
2022-12-31T13:11:36.914Z,73.11
2022-12-31T13:14:13.803Z,72.88
2022-12-31T13:17:09.999Z,72.77
2022-12-31T13:19:47.642Z,72.86
2022-12-31T13:22:47.388Z,72.85
2022-12-31T13:25:21.830Z,72.93
2022-12-31T13:27:50.952Z,73.07
2022-12-31T13:30:25.582Z,73.28
2022-12-31T13:33:00.716Z,73.30
2022-12-31T13:35:33.623Z,73.35
2022-12-31T13:38:28.727Z,73.36
2022-12-31T13:41:06.383Z,73.53
2022-12-31T13:43:34.366Z,73.71
2022-12-31T13:46:09.721Z,73.63
2022-12-31T13:48:45.353Z,73.47
2022-12-31T13:51:24.923Z,73.26
2022-12-31T13:54:07.868Z,73.21
2022-12-31T13:56:38.136Z,73.19
2022-12-31T13:59:45.814Z,73.01
2022-12-31T14:02:30.257Z,72.96
2022-12-31T14:05:07.198Z,73.10
2022-12-31T14:07:45.178Z,73.20
2022-12-31T14:10:15.790Z,73.42
2022-12-31T14:12:59.579Z,73.55
2022-12-31T14:15:32.334Z,73.60
2022-12-31T14:18:19.985Z,73.56
2022-12-31T14:21:06.647Z,73.58
2022-12-31T14:23:50.486Z,73.86
2022-12-31T14:26:27.680Z,73.49
2022-12-31T14:29:27.107Z,73.62
2022-12-31T14:32:10.306Z,73.78
2022-12-31T14:34:44.290Z,73.85
2022-12-31T14:37:34.903Z,74.11
2022-12-31T14:40:16.214Z,74.07
2022-12-31T14:42:51.810Z,73.94
2022-12-31T14:45:38.960Z,74.16
2022-12-31T14:48:28.734Z,74.04
2022-12-31T14:50:59.959Z,73.94
2022-12-31T14:53:29.087Z,73.77
2022-12-31T14:56:05.750Z,73.58
2022-12-31T14:58:42.612Z,73.62
2022-12-31T15:01:17.603Z,73.60
2022-12-31T15:03:51.791Z,73.85
2022-12-31T15:06:22.980Z,73.87
2022-12-31T15:09:22.184Z,73.79
2022-12-31T15:11:50.126Z,73.76
2022-12-31T15:14:39.586Z,73.65
2022-12-31T15:17:10.601Z,73.82
2022-12-31T15:19:50.860Z,73.80
2022-12-31T15:22:31.750Z,73.86
2022-12-31T15:25:01.215Z,73.77
2022-12-31T15:27:39.000Z,73.86
2022-12-31T15:30:08.156Z,73.95
2022-12-31T15:32:40.218Z,73.95
2022-12-31T15:35:20.517Z,73.88
2022-12-31T15:38:15.828Z,73.97
2022-12-31T15:40:46.226Z,73.88
2022-12-31T15:43:40.169Z,73.88
2022-12-31T15:46:16.812Z,73.83
2022-12-31T15:49:15.899Z,73.80
2022-12-31T15:51:48.490Z,74.00
2022-12-31T15:54:24.020Z,74.27
2022-12-31T15:56:52.676Z,74.54
2022-12-31T15:59:22.307Z,74.61
2022-12-31T16:01:50.558Z,74.52
2022-12-31T16:04:21.121Z,74.43
2022-12-31T16:06:51.263Z,74.31
2022-12-31T16:09:24.499Z,74.19
2022-12-31T16:11:54.084Z,74.04
2022-12-31T16:14:26.282Z,74.17
2022-12-31T16:16:58.078Z,74.15
2022-12-31T16:19:36.436Z,74.37
2022-12-31T16:22:14.587Z,74.90
2022-12-31T16:25:19.494Z,75.01
2022-12-31T16:27:31.646Z,75.09
2022-12-31T16:30:07.309Z,75.13
2022-12-31T16:32:39.052Z,74.95
2022-12-31T16:35:25.091Z,74.65
2022-12-31T16:38:03.766Z,74.43
2022-12-31T16:40:31.845Z,74.36
2022-12-31T16:43:00.406Z,74.23
2022-12-31T16:45:36.262Z,74.09
2022-12-31T16:48:16.580Z,74.27
2022-12-31T16:50:47.063Z,74.17
2022-12-31T16:53:19.545Z,74.45
2022-12-31T16:55:57.139Z,74.51
2022-12-31T16:58:33.919Z,74.72
2022-12-31T17:01:19.864Z,74.72
2022-12-31T17:03:52.697Z,74.77
2022-12-31T17:06:22.249Z,74.56
2022-12-31T17:08:50.279Z,74.31
2022-12-31T17:11:30.888Z,74.27
2022-12-31T17:14:23.168Z,74.13
2022-12-31T17:17:02.544Z,74.22
2022-12-31T17:19:34.259Z,74.47
2022-12-31T17:22:16.139Z,74.65
2022-12-31T17:24:44.437Z,74.75
2022-12-31T17:27:12.484Z,74.68
2022-12-31T17:29:40.500Z,74.68
2022-12-31T17:32:31.355Z,74.71
2022-12-31T17:34:59.406Z,74.98
2022-12-31T17:37:29.566Z,74.52
2022-12-31T17:42:49.656Z,75.06
2022-12-31T17:45:21.938Z,75.11
2022-12-31T17:47:52.615Z,75.18
2022-12-31T17:50:25.318Z,75.23
2022-12-31T17:52:59.880Z,75.19
2022-12-31T17:55:28.865Z,74.95
2022-12-31T17:57:58.248Z,74.90
2022-12-31T18:00:27.285Z,74.90
2022-12-31T18:02:55.450Z,74.77
2022-12-31T18:05:23.840Z,74.72
2022-12-31T18:07:52.402Z,74.84
2022-12-31T18:10:23.113Z,75.12
2022-12-31T18:12:51.337Z,75.23
2022-12-31T18:15:22.039Z,75.41
2022-12-31T18:17:50.656Z,75.52
2022-12-31T18:20:18.892Z,75.58
2022-12-31T18:22:47.239Z,75.60
2022-12-31T18:25:19.682Z,75.72
2022-12-31T18:27:48.905Z,75.67
2022-12-31T18:30:16.974Z,75.66
2022-12-31T18:32:45.533Z,75.81
2022-12-31T18:36:06.589Z,76.04
2022-12-31T18:38:13.153Z,76.32
2022-12-31T18:40:44.472Z,76.57
2022-12-31T18:43:17.567Z,76.44
2022-12-31T18:45:46.520Z,77.12
2022-12-31T18:48:15.088Z,76.94
2022-12-31T18:50:44.049Z,76.82
2022-12-31T18:53:22.535Z,77.26
2022-12-31T18:55:53.332Z,77.59
2022-12-31T18:58:22.119Z,77.77
2022-12-31T19:00:51.017Z,77.55
2022-12-31T19:03:22.536Z,77.58
2022-12-31T19:05:52.023Z,77.69
2022-12-31T19:08:23.730Z,77.55
2022-12-31T19:10:53.591Z,77.58
2022-12-31T19:13:23.021Z,77.67
2022-12-31T19:15:53.402Z,78.06
2022-12-31T19:18:21.751Z,78.46
2022-12-31T19:20:51.161Z,78.11
2022-12-31T19:23:21.671Z,78.11
2022-12-31T19:25:50.251Z,78.66
2022-12-31T19:28:21.326Z,78.95
2022-12-31T19:30:49.940Z,78.96
2022-12-31T19:33:18.256Z,78.59
2022-12-31T19:35:46.460Z,78.50
2022-12-31T19:38:22.701Z,78.47
2022-12-31T19:40:52.105Z,78.28
2022-12-31T19:43:21.924Z,78.03
2022-12-31T19:45:50.855Z,77.78
2022-12-31T19:48:23.701Z,77.60
2022-12-31T19:50:56.767Z,77.50
2022-12-31T19:53:26.691Z,77.32
2022-12-31T19:55:54.875Z,77.35
2022-12-31T19:58:27.387Z,77.35
2022-12-31T20:01:02.369Z,77.42
2022-12-31T20:03:32.850Z,77.41
2022-12-31T20:06:10.803Z,77.34
2022-12-31T20:08:39.489Z,77.33
2022-12-31T20:11:11.394Z,77.32
2022-12-31T20:13:40.650Z,77.12
2022-12-31T20:16:09.871Z,77.34
2022-12-31T20:18:39.070Z,77.21
2022-12-31T20:21:32.901Z,77.10
2022-12-31T20:24:01.014Z,77.18
2022-12-31T20:26:29.077Z,77.20
2022-12-31T20:28:57.103Z,77.33
2022-12-31T20:31:26.486Z,77.43
2022-12-31T20:33:55.031Z,77.25
2022-12-31T20:36:23.850Z,77.08
2022-12-31T20:38:52.291Z,77.04
2022-12-31T20:41:22.707Z,76.99
2022-12-31T20:43:51.228Z,77.12
2022-12-31T20:46:20.687Z,77.01
2022-12-31T20:48:50.450Z,77.00
2022-12-31T20:51:19.697Z,77.07
2022-12-31T20:53:50.621Z,77.08
2022-12-31T20:56:19.210Z,77.16
2022-12-31T20:58:48.012Z,77.18
2022-12-31T21:01:17.305Z,77.04
2022-12-31T21:06:35.661Z,76.89
2022-12-31T21:09:06.061Z,76.86
2022-12-31T21:11:53.282Z,76.91
2022-12-31T21:14:21.947Z,76.84
2022-12-31T21:16:50.654Z,76.97
2022-12-31T21:19:18.636Z,76.92
2022-12-31T21:21:48.347Z,76.85
2022-12-31T21:24:23.272Z,76.83
2022-12-31T21:26:55.383Z,76.72
2022-12-31T21:29:23.514Z,76.60
2022-12-31T21:31:51.692Z,76.52
2022-12-31T21:34:19.790Z,76.43
2022-12-31T21:36:47.869Z,76.44
2022-12-31T21:39:15.976Z,76.44
2022-12-31T21:41:53.186Z,76.82
2022-12-31T21:44:24.041Z,76.95
2022-12-31T21:47:37.174Z,76.92
2022-12-31T21:50:07.536Z,76.82
2022-12-31T21:52:35.623Z,76.65
2022-12-31T21:55:24.106Z,76.55
2022-12-31T21:58:24.631Z,76.57
2022-12-31T22:00:59.433Z,76.58
2022-12-31T22:03:28.340Z,76.65
2022-12-31T22:06:12.453Z,76.88
2022-12-31T22:08:45.739Z,76.97
2022-12-31T22:11:15.060Z,77.09
2022-12-31T22:13:43.773Z,77.23
2022-12-31T22:16:14.181Z,76.93
2022-12-31T22:18:44.121Z,76.76
2022-12-31T22:21:18.942Z,76.56
2022-12-31T22:23:52.737Z,76.59
2022-12-31T22:26:23.726Z,76.58
2022-12-31T22:28:52.490Z,76.42
2022-12-31T22:31:26.649Z,76.44
2022-12-31T22:33:54.808Z,76.48
2022-12-31T22:36:23.961Z,76.60
2022-12-31T22:38:57.471Z,76.74
2022-12-31T22:41:26.764Z,76.74
2022-12-31T22:44:03.047Z,76.67
2022-12-31T22:46:32.479Z,76.53
2022-12-31T22:49:02.475Z,76.45
2022-12-31T22:51:57.162Z,76.25
2022-12-31T22:54:19.568Z,76.20
2022-12-31T22:56:47.702Z,76.23
2022-12-31T22:59:15.718Z,76.37
2022-12-31T23:01:44.163Z,76.39
2022-12-31T23:04:12.411Z,76.56
2022-12-31T23:06:47.372Z,76.74
2022-12-31T23:09:36.058Z,76.97
2022-12-31T23:12:06.297Z,77.02
2022-12-31T23:14:53.478Z,76.99
2022-12-31T23:17:45.239Z,76.82
2022-12-31T23:20:37.740Z,76.66
2022-12-31T23:23:12.970Z,76.78
2022-12-31T23:25:51.993Z,76.78
2022-12-31T23:28:24.944Z,77.00
2022-12-31T23:30:53.873Z,77.20
2022-12-31T23:33:24.124Z,77.16
2022-12-31T23:36:04.085Z,77.07
2022-12-31T23:38:32.215Z,77.06
2022-12-31T23:41:00.448Z,77.10
2022-12-31T23:43:28.476Z,77.06
2022-12-31T23:45:56.530Z,77.04
2022-12-31T23:48:24.622Z,77.06
2022-12-31T23:50:54.102Z,77.16
2022-12-31T23:53:23.581Z,77.28
2022-12-31T23:55:52.823Z,77.33
2022-12-31T23:58:21.853Z,77.37
